Freedom, Ohio
Current Conditions -  °F | °C
As of 3:18 AM on Saturday 25 Oct 2014 (Local Time) from KPOV Reporting Station
Overcast Overcast  
Wind Chill: 49°   Ceiling: 4400
Heat Index: 49°   Visibility: 10mi
Dew Point: 38°   Wind: 0mph
Humidity: 66%   Direction: NA
Pressure: 29.96"   Gusts: NA
Location:  41.2385°N, 81.0761°W
Report Text: KPOV 250718Z AUTO 00000KT 10SM OVC044 10/04 A2996 RMK AO2 T00950035
Loading
Personal Weather Stations






























Interactive Weather Map
Tropical Storm Tracking
New forecast layout! Learn more

10-Day Weather Forecast

Advertisements
Track Severe Weather on mobile